createdAt,value
2023-02-03T00:00:18.018Z,99569.41
2023-02-03T00:02:44.549Z,99567.69
2023-02-03T00:05:11.112Z,99565.22
2023-02-03T00:07:39.810Z,99565.25
2023-02-03T00:10:08.011Z,99559.78
2023-02-03T00:12:34.892Z,99558.06
2023-02-03T00:15:01.400Z,99571.16
2023-02-03T00:17:28.035Z,99569.91
2023-02-03T00:19:54.631Z,99573.09
2023-02-03T00:22:21.152Z,99577.91
2023-02-03T00:27:18.882Z,99574.94
2023-02-03T00:29:45.376Z,99569.59
2023-02-03T00:32:11.995Z,99569.59
2023-02-03T00:34:38.625Z,99566.88
2023-02-03T00:37:05.191Z,99578.38
2023-02-03T00:39:31.730Z,99577.06
2023-02-03T00:41:58.275Z,99584.94
2023-02-03T00:44:24.887Z,99585.56
2023-02-03T00:46:51.374Z,99592.94
2023-02-03T00:49:18.000Z,99603.47
2023-02-03T00:51:44.490Z,99596.16
2023-02-03T00:54:11.149Z,99598.88
2023-02-03T00:56:37.674Z,99608.22
2023-02-03T00:59:04.181Z,99595.50
2023-02-03T01:01:30.733Z,99584.47
2023-02-03T01:03:57.486Z,99589.88
2023-02-03T01:06:24.408Z,99595.91
2023-02-03T01:08:51.292Z,99598.84
2023-02-03T01:13:56.885Z,99577.06
2023-02-03T01:16:26.019Z,99568.59
2023-02-03T01:18:55.247Z,99540.66
2023-02-03T01:21:26.958Z,99538.25
2023-02-03T01:23:54.359Z,99547.50
2023-02-03T01:28:59.245Z,99556.31
2023-02-03T01:31:31.783Z,99563.50
2023-02-03T01:36:32.369Z,99554.84
2023-02-03T01:38:59.202Z,99547.81
2023-02-03T01:41:30.051Z,99545.56
2023-02-03T01:43:59.807Z,99541.53
2023-02-03T01:46:35.597Z,99534.03
2023-02-03T01:51:53.516Z,99553.81
2023-02-03T01:57:04.820Z,99563.88
2023-02-03T02:02:07.005Z,99546.84
2023-02-03T02:04:50.960Z,99532.09
2023-02-03T02:09:49.191Z,99527.84
2023-02-03T02:14:47.917Z,99512.38
2023-02-03T02:17:21.429Z,99492.06
2023-02-03T02:20:09.941Z,99475.00
2023-02-03T02:26:15.598Z,99471.63
2023-02-03T02:29:03.404Z,99484.88
2023-02-03T02:31:38.801Z,99478.63
2023-02-03T02:37:14.321Z,99464.56
2023-02-03T02:42:47.189Z,99438.31
2023-02-03T02:48:10.385Z,99449.91
2023-02-03T02:53:15.550Z,99494.63
2023-02-03T02:55:44.687Z,99501.25
2023-02-03T02:58:15.324Z,99497.25
2023-02-03T03:00:43.223Z,99497.75
2023-02-03T03:03:13.754Z,99481.56
2023-02-03T03:05:42.961Z,99482.03
2023-02-03T03:10:44.036Z,99465.31
2023-02-03T03:13:16.696Z,99474.53
2023-02-03T03:15:45.665Z,99478.53
2023-02-03T03:18:46.579Z,99469.97
2023-02-03T03:21:19.823Z,99460.22
2023-02-03T03:23:51.100Z,99466.47
2023-02-03T03:26:36.459Z,99480.81
2023-02-03T03:29:39.802Z,99465.50
2023-02-03T03:32:06.651Z,99483.66
2023-02-03T03:34:33.782Z,99494.53
2023-02-03T03:37:08.491Z,99498.38
2023-02-03T03:39:54.971Z,99503.59
2023-02-03T03:42:32.088Z,99506.69
2023-02-03T03:45:01.610Z,99502.03
2023-02-03T03:55:19.886Z,99531.78
2023-02-03T03:57:56.523Z,99539.16
2023-02-03T04:00:26.762Z,99544.44
2023-02-03T04:02:56.973Z,99548.09
2023-02-03T04:05:24.659Z,99557.31
2023-02-03T04:10:35.200Z,99544.22
2023-02-03T04:13:02.365Z,99545.22
2023-02-03T04:15:28.893Z,99534.19
2023-02-03T04:17:57.171Z,99544.09
2023-02-03T04:20:25.376Z,99552.97
2023-02-03T04:25:30.597Z,99546.94
2023-02-03T04:27:57.174Z,99547.69
2023-02-03T04:30:24.251Z,99538.31
2023-02-03T04:32:50.790Z,99536.69
2023-02-03T04:35:17.442Z,99522.47
2023-02-03T04:40:17.634Z,99518.78
2023-02-03T04:42:44.368Z,99517.78
2023-02-03T04:45:12.268Z,99521.16
2023-02-03T04:47:39.549Z,99525.44
2023-02-03T04:50:06.715Z,99527.34
2023-02-03T04:55:10.596Z,99525.38
2023-02-03T05:00:09.060Z,99504.13
2023-02-03T05:05:07.425Z,99506.56
2023-02-03T05:07:33.927Z,99506.34
2023-02-03T05:10:00.459Z,99506.09
2023-02-03T05:12:27.014Z,99510.09
2023-02-03T05:14:53.576Z,99527.00
2023-02-03T05:17:20.143Z,99527.88
2023-02-03T05:19:46.766Z,99529.59
2023-02-03T05:22:13.361Z,99527.19
2023-02-03T05:24:39.895Z,99521.16
2023-02-03T05:27:06.476Z,99513.94
2023-02-03T05:29:33.047Z,99516.53
2023-02-03T05:31:59.629Z,99518.88
2023-02-03T05:34:26.301Z,99531.94
2023-02-03T05:36:52.856Z,99534.84
2023-02-03T05:39:19.450Z,99527.50
2023-02-03T05:41:57.369Z,99532.44
2023-02-03T05:44:28.934Z,99537.22
2023-02-03T05:46:57.626Z,99540.28
2023-02-03T05:51:59.182Z,99542.66
2023-02-03T05:56:57.287Z,99512.53
2023-02-03T05:59:23.820Z,99500.56
2023-02-03T06:01:50.382Z,99505.00
2023-02-03T06:04:17.062Z,99506.31
2023-02-03T06:06:43.662Z,99510.22
2023-02-03T06:09:10.270Z,99509.56
2023-02-03T06:14:14.628Z,99500.38
2023-02-03T06:16:41.229Z,99505.81
2023-02-03T06:19:07.916Z,99496.88
2023-02-03T06:21:34.478Z,99498.63
2023-02-03T06:24:00.988Z,99511.72
2023-02-03T06:26:27.603Z,99524.00
2023-02-03T06:28:54.108Z,99518.56
2023-02-03T06:31:20.813Z,99521.69
2023-02-03T06:36:18.725Z,99501.69
2023-02-03T06:38:45.257Z,99519.38
2023-02-03T06:41:11.863Z,99512.16
2023-02-03T06:43:38.481Z,99498.47
2023-02-03T06:46:05.085Z,99493.72
2023-02-03T06:48:31.651Z,99485.56
2023-02-03T06:50:58.200Z,99478.06
2023-02-03T06:53:25.015Z,99472.50
2023-02-03T06:58:29.249Z,99480.66
2023-02-03T07:03:28.134Z,99484.47
2023-02-03T07:08:25.875Z,99477.06
2023-02-03T07:13:26.918Z,99466.47
2023-02-03T07:15:53.530Z,99473.63
2023-02-03T07:18:45.856Z,99481.78
2023-02-03T07:23:43.131Z,99468.94
2023-02-03T07:26:11.249Z,99461.28
2023-02-03T07:28:38.013Z,99481.41
2023-02-03T07:31:05.044Z,99481.41
2023-02-03T07:33:32.042Z,99484.59
2023-02-03T07:36:00.074Z,99486.19
2023-02-03T07:38:28.242Z,99485.19
2023-02-03T07:43:33.539Z,99496.06
2023-02-03T07:51:05.135Z,99512.78
2023-02-03T07:53:32.146Z,99522.81
2023-02-03T07:56:02.935Z,99526.16
2023-02-03T08:01:16.739Z,99531.50
2023-02-03T08:03:43.563Z,99537.72
2023-02-03T08:08:42.144Z,99546.50
2023-02-03T08:13:46.157Z,99563.75
2023-02-03T08:16:12.835Z,99563.75
2023-02-03T08:18:39.439Z,99548.09
2023-02-03T08:21:06.103Z,99539.78
2023-02-03T08:31:11.632Z,99552.53
2023-02-03T08:33:38.868Z,99545.50
2023-02-03T08:36:06.262Z,99523.66
2023-02-03T08:38:33.265Z,99535.81
2023-02-03T08:43:31.136Z,99550.25
2023-02-03T08:48:41.006Z,99574.13
2023-02-03T08:51:15.549Z,99568.56
2023-02-03T08:53:42.198Z,99554.63
2023-02-03T08:58:48.883Z,99553.84
2023-02-03T09:01:16.139Z,99557.50
2023-02-03T09:06:16.790Z,99549.44
2023-02-03T09:08:46.168Z,99541.78
2023-02-03T09:16:19.736Z,99545.97
2023-02-03T09:18:47.002Z,99526.06
2023-02-03T09:23:47.315Z,99535.50
2023-02-03T09:26:15.307Z,99529.19
2023-02-03T09:28:42.166Z,99536.81
2023-02-03T09:31:10.887Z,99535.91
2023-02-03T09:33:38.321Z,99544.66
2023-02-03T09:38:37.627Z,99548.59
2023-02-03T09:47:16.522Z,99538.31
2023-02-03T09:49:53.706Z,99537.97
2023-02-03T09:52:28.957Z,99541.47
2023-02-03T09:58:06.288Z,99533.97
2023-02-03T10:00:36.736Z,99527.13
2023-02-03T10:03:19.031Z,99523.16
2023-02-03T10:06:07.437Z,99530.88
2023-02-03T10:08:57.342Z,99514.16
2023-02-03T10:11:52.486Z,99519.44
2023-02-03T10:14:46.835Z,99526.94
2023-02-03T10:20:21.759Z,99541.66
2023-02-03T10:22:52.388Z,99548.53
2023-02-03T10:28:09.830Z,99545.19
2023-02-03T10:30:45.653Z,99542.31
2023-02-03T10:33:16.408Z,99549.66
2023-02-03T10:35:45.932Z,99541.81
2023-02-03T10:38:20.824Z,99540.19
2023-02-03T10:40:47.986Z,99537.97
2023-02-03T10:43:33.229Z,99528.88
2023-02-03T10:46:00.202Z,99517.03
2023-02-03T10:48:27.835Z,99519.44
2023-02-03T10:53:36.327Z,99516.25
2023-02-03T10:58:52.712Z,99518.97
2023-02-03T11:04:05.282Z,99511.31
2023-02-03T11:06:34.364Z,99502.81
2023-02-03T11:11:34.425Z,99511.28
2023-02-03T11:14:03.876Z,99503.28
2023-02-03T11:16:35.268Z,99476.72
2023-02-03T11:21:38.841Z,99480.44
2023-02-03T11:24:33.750Z,99489.03
2023-02-03T11:29:51.133Z,99474.81
2023-02-03T11:32:17.773Z,99476.72
2023-02-03T11:35:24.100Z,99473.69
2023-02-03T11:37:53.895Z,99486.50
2023-02-03T11:40:20.402Z,99488.75
2023-02-03T11:42:49.704Z,99484.75
2023-02-03T11:45:42.140Z,99480.91
2023-02-03T11:48:31.145Z,99454.50
2023-02-03T11:51:22.464Z,99453.69
2023-02-03T11:57:13.085Z,99452.25
2023-02-03T11:59:47.940Z,99443.63
2023-02-03T12:02:45.582Z,99442.81
2023-02-03T12:05:15.088Z,99439.94
2023-02-03T12:08:07.648Z,99442.66
2023-02-03T12:11:06.841Z,99439.78
2023-02-03T12:13:52.285Z,99439.16
2023-02-03T12:16:46.542Z,99445.41
2023-02-03T12:19:38.926Z,99437.69
2023-02-03T12:22:26.134Z,99453.06
2023-02-03T12:25:06.639Z,99456.41
2023-02-03T12:27:54.622Z,99460.09
2023-02-03T12:30:47.336Z,99456.59
2023-02-03T12:33:21.078Z,99456.28
2023-02-03T12:35:56.587Z,99442.03
2023-02-03T12:38:30.162Z,99424.28
2023-02-03T12:41:01.413Z,99424.91
2023-02-03T12:43:37.795Z,99421.56
2023-02-03T12:46:14.188Z,99418.19
2023-02-03T12:49:05.843Z,99410.19
2023-02-03T12:51:41.101Z,99409.53
2023-02-03T12:54:37.645Z,99403.31
2023-02-03T12:57:27.178Z,99391.78
2023-02-03T13:00:19.807Z,99380.75
2023-02-03T13:03:07.834Z,99390.34
2023-02-03T13:08:20.522Z,99385.69
2023-02-03T13:10:52.740Z,99374.50
2023-02-03T13:13:33.349Z,99371.47
2023-02-03T13:26:27.953Z,99348.78
2023-02-03T13:31:58.389Z,99337.72
2023-02-03T13:37:18.750Z,99338.53
2023-02-03T13:39:51.022Z,99336.63
2023-02-03T13:42:30.641Z,99354.22
2023-02-03T13:47:35.178Z,99324.94
2023-02-03T13:50:06.651Z,99329.75
2023-02-03T13:52:44.522Z,99322.69
2023-02-03T13:55:36.782Z,99326.06
2023-02-03T14:00:45.655Z,99336.44
2023-02-03T14:03:39.190Z,99338.53
2023-02-03T14:06:30.581Z,99337.09
2023-02-03T14:09:00.378Z,99337.91
2023-02-03T14:11:35.742Z,99337.41
2023-02-03T14:14:08.178Z,99339.00
2023-02-03T14:16:37.470Z,99340.94
2023-02-03T14:19:05.228Z,99344.44
2023-02-03T14:21:48.672Z,99341.06
2023-02-03T14:26:54.045Z,99339.34
2023-02-03T14:29:30.660Z,99338.81
2023-02-03T14:32:00.635Z,99338.03
2023-02-03T14:37:32.812Z,99333.72
2023-02-03T14:40:12.779Z,99338.16
2023-02-03T14:46:01.977Z,99343.00
2023-02-03T14:49:07.369Z,99340.59
2023-02-03T14:54:48.100Z,99367.25
2023-02-03T15:05:45.019Z,99352.25
2023-02-03T15:11:27.037Z,99358.50
2023-02-03T15:13:55.648Z,99357.69
2023-02-03T15:16:24.754Z,99352.28
2023-02-03T15:21:42.045Z,99362.66
2023-02-03T15:24:22.367Z,99357.56
2023-02-03T15:26:51.679Z,99364.09
2023-02-03T15:32:12.594Z,99373.69
2023-02-03T15:46:00.026Z,99403.53
2023-02-03T15:48:47.914Z,99411.91
2023-02-03T15:51:37.670Z,99412.72
2023-02-03T15:59:42.686Z,99425.06
2023-02-03T16:02:30.220Z,99426.19
2023-02-03T16:04:57.462Z,99413.88
2023-02-03T16:07:29.511Z,99415.31
2023-02-03T16:10:00.099Z,99410.50
2023-02-03T16:12:31.850Z,99418.84
2023-02-03T16:15:00.059Z,99417.09
2023-02-03T16:23:19.890Z,99435.78
2023-02-03T16:26:06.483Z,99422.19
2023-02-03T16:31:49.490Z,99411.31
2023-02-03T16:34:37.038Z,99410.53
2023-02-03T16:37:32.837Z,99400.94
2023-02-03T16:43:14.243Z,99403.50
2023-02-03T16:45:59.266Z,99408.00
2023-02-03T16:51:17.270Z,99397.75
2023-02-03T16:53:45.589Z,99404.63
2023-02-03T16:56:13.686Z,99404.94
2023-02-03T16:58:40.735Z,99413.09
2023-02-03T17:01:09.713Z,99412.31
2023-02-03T17:03:36.953Z,99397.28
2023-02-03T17:06:07.530Z,99411.50
2023-02-03T17:08:34.383Z,99421.91
2023-02-03T17:11:10.930Z,99424.94
2023-02-03T17:13:37.505Z,99425.59
2023-02-03T17:16:10.934Z,99414.22
2023-02-03T17:18:39.385Z,99411.00
2023-02-03T17:23:41.129Z,99410.72
2023-02-03T17:26:08.045Z,99400.16
2023-02-03T17:28:35.333Z,99403.34
2023-02-03T17:31:04.664Z,99412.94
2023-02-03T17:33:31.951Z,99412.47
2023-02-03T17:36:07.581Z,99412.47
2023-02-03T17:54:47.127Z,99432.13
2023-02-03T17:57:13.649Z,99430.22
2023-02-03T17:59:40.803Z,99433.72
2023-02-03T18:04:45.568Z,99436.78
2023-02-03T18:07:12.095Z,99432.91
2023-02-03T18:09:38.652Z,99436.91
2023-02-03T18:12:05.329Z,99444.13
2023-02-03T18:14:31.934Z,99446.84
2023-02-03T18:16:58.513Z,99450.66
2023-02-03T18:21:56.390Z,99444.25
2023-02-03T18:24:27.954Z,99456.75
2023-02-03T18:26:55.020Z,99453.38
2023-02-03T18:29:22.232Z,99451.31
2023-02-03T18:31:48.797Z,99454.50
2023-02-03T18:34:16.727Z,99448.59
2023-02-03T18:36:43.338Z,99443.94
2023-02-03T18:39:12.342Z,99446.34
2023-02-03T18:41:39.685Z,99442.19
2023-02-03T18:44:06.299Z,99445.88
2023-02-03T18:46:33.855Z,99443.78
2023-02-03T18:49:00.614Z,99436.13
2023-02-03T18:51:27.817Z,99435.00
2023-02-03T18:53:58.724Z,99432.28
2023-02-03T18:56:27.504Z,99436.72
2023-02-03T18:58:55.156Z,99441.25
2023-02-03T19:04:06.868Z,99437.00
2023-02-03T19:06:35.969Z,99442.00
2023-02-03T19:09:04.230Z,99434.19
2023-02-03T19:14:04.319Z,99446.97
2023-02-03T19:16:30.866Z,99447.63
2023-02-03T19:18:57.542Z,99449.06
2023-02-03T19:23:55.328Z,99454.66
2023-02-03T19:26:21.956Z,99457.06
2023-02-03T19:28:48.564Z,99450.03
2023-02-03T19:31:15.680Z,99455.28
2023-02-03T19:36:15.396Z,99459.63
2023-02-03T19:38:41.926Z,99466.34
2023-02-03T19:41:09.616Z,99481.53
2023-02-03T19:43:36.171Z,99475.13
2023-02-03T19:46:02.837Z,99483.47
2023-02-03T19:48:29.711Z,99495.72
2023-02-03T19:50:56.289Z,99485.25
2023-02-03T19:53:24.405Z,99486.13
2023-02-03T19:55:51.445Z,99480.41
2023-02-03T20:00:55.773Z,99490.97
2023-02-03T20:03:23.154Z,99486.66
2023-02-03T20:05:51.066Z,99482.03
2023-02-03T20:08:17.707Z,99492.41
2023-02-03T20:10:45.493Z,99487.59
2023-02-03T20:15:47.585Z,99482.31
2023-02-03T20:18:14.257Z,99478.03
2023-02-03T20:20:40.878Z,99478.03
2023-02-03T20:23:07.457Z,99467.16
2023-02-03T20:25:34.013Z,99472.59
2023-02-03T20:28:02.610Z,99471.47
2023-02-03T20:30:29.913Z,99478.03
2023-02-03T20:32:56.730Z,99477.72
2023-02-03T20:35:23.988Z,99482.16
2023-02-03T20:37:50.835Z,99470.19
2023-02-03T20:40:18.825Z,99474.19
2023-02-03T20:42:45.373Z,99469.22
2023-02-03T20:45:20.575Z,99475.78
2023-02-03T20:47:48.233Z,99481.72
2023-02-03T20:50:31.442Z,99481.88
2023-02-03T20:53:01.168Z,99487.94
2023-02-03T20:55:27.671Z,99491.16
2023-02-03T20:57:56.906Z,99484.59
2023-02-03T21:00:26.036Z,99483.78
2023-02-03T21:03:12.209Z,99482.16
2023-02-03T21:05:41.916Z,99480.75
2023-02-03T21:08:19.004Z,99488.59
2023-02-03T21:10:47.446Z,99486.00
2023-02-03T21:13:34.919Z,99487.47
2023-02-03T21:18:55.052Z,99476.75
2023-02-03T21:21:28.270Z,99493.56
2023-02-03T21:23:55.115Z,99481.25
2023-02-03T21:26:24.824Z,99490.66
2023-02-03T21:28:56.306Z,99482.97
2023-02-03T21:31:27.074Z,99488.41
2023-02-03T21:33:56.018Z,99479.13
2023-02-03T21:36:25.322Z,99479.63
2023-02-03T21:38:57.710Z,99467.47
2023-02-03T21:41:25.607Z,99483.63
2023-02-03T21:43:57.386Z,99496.59
2023-02-03T21:46:26.833Z,99483.94
2023-02-03T21:48:58.593Z,99486.34
2023-02-03T21:54:43.634Z,99494.47
2023-02-03T21:57:15.441Z,99480.75
2023-02-03T21:59:46.633Z,99482.31
2023-02-03T22:02:55.972Z,99484.75
2023-02-03T22:05:22.569Z,99491.63
2023-02-03T22:07:49.192Z,99478.03
2023-02-03T22:10:15.983Z,99486.19
2023-02-03T22:12:42.533Z,99480.91
2023-02-03T22:15:09.443Z,99494.00
2023-02-03T22:17:35.996Z,99497.69
2023-02-03T22:20:02.914Z,99487.63
2023-02-03T22:22:31.022Z,99487.91
2023-02-03T22:24:57.590Z,99491.91
2023-02-03T22:27:25.577Z,99492.72
2023-02-03T22:29:53.381Z,99480.09
2023-02-03T22:32:19.911Z,99489.84
2023-02-03T22:34:47.316Z,99477.38
2023-02-03T22:37:13.831Z,99494.00
2023-02-03T22:39:40.379Z,99501.69
2023-02-03T22:42:06.874Z,99499.28
2023-02-03T22:44:33.425Z,99504.06
2023-02-03T22:46:59.928Z,99491.75
2023-02-03T22:49:26.475Z,99501.53
2023-02-03T22:51:53.003Z,99502.63
2023-02-03T22:54:19.574Z,99510.50
2023-02-03T22:56:46.128Z,99513.50
2023-02-03T22:59:12.664Z,99517.66
2023-02-03T23:01:39.262Z,99528.38
2023-02-03T23:04:05.847Z,99541.19
2023-02-03T23:06:32.369Z,99540.25
2023-02-03T23:08:59.001Z,99541.03
2023-02-03T23:11:25.606Z,99542.97
2023-02-03T23:13:52.117Z,99540.41
2023-02-03T23:16:18.691Z,99540.72
2023-02-03T23:18:45.230Z,99539.28
2023-02-03T23:21:11.788Z,99546.47
2023-02-03T23:23:38.442Z,99536.88
2023-02-03T23:26:05.102Z,99542.16
2023-02-03T23:28:31.639Z,99530.81
2023-02-03T23:30:58.224Z,99542.81
2023-02-03T23:33:24.954Z,99525.66
2023-02-03T23:35:52.735Z,99537.03
2023-02-03T23:38:19.265Z,99529.03
2023-02-03T23:40:45.871Z,99529.38
2023-02-03T23:45:52.888Z,99524.88
2023-02-03T23:48:19.462Z,99532.53
2023-02-03T23:50:45.983Z,99525.66
2023-02-03T23:53:12.517Z,99527.59
2023-02-03T23:55:39.115Z,99524.22
2023-02-03T23:58:05.701Z,99520.22
